createdAt,value
2022-10-03T00:02:54.689Z,100.00
2022-10-03T00:06:02.321Z,100.00
2022-10-03T00:08:55.281Z,100.00
2022-10-03T00:11:32.889Z,100.00
2022-10-03T00:14:37.381Z,100.00
2022-10-03T00:17:26.969Z,100.00
2022-10-03T00:20:33.139Z,100.00
2022-10-03T00:23:19.808Z,100.00
2022-10-03T00:26:30.907Z,100.00
2022-10-03T00:29:10.964Z,100.00
2022-10-03T00:31:58.976Z,100.00
2022-10-03T00:34:33.735Z,100.00
2022-10-03T00:37:20.058Z,100.00
2022-10-03T00:39:53.501Z,100.00
2022-10-03T00:42:54.041Z,100.00
2022-10-03T00:46:02.177Z,100.00
2022-10-03T00:48:35.954Z,100.00
2022-10-03T00:51:12.938Z,100.00
2022-10-03T00:53:43.322Z,100.00
2022-10-03T00:56:17.000Z,100.00
2022-10-03T00:58:53.794Z,100.00
2022-10-03T01:01:46.939Z,100.00
2022-10-03T01:04:42.293Z,100.00
2022-10-03T01:07:23.982Z,100.00
2022-10-03T01:10:01.715Z,100.00
2022-10-03T01:12:53.945Z,100.00
2022-10-03T01:15:47.965Z,100.00
2022-10-03T01:18:32.547Z,100.00
2022-10-03T01:21:07.819Z,100.00
2022-10-03T01:23:45.859Z,100.00
2022-10-03T01:26:55.708Z,100.00
2022-10-03T01:29:53.670Z,100.00
2022-10-03T01:32:52.943Z,100.00
2022-10-03T01:35:27.540Z,100.00
2022-10-03T01:38:05.093Z,100.00
2022-10-03T01:40:48.030Z,100.00
2022-10-03T01:43:31.274Z,100.00
2022-10-03T01:46:17.266Z,100.00
2022-10-03T01:48:47.424Z,100.00
2022-10-03T01:51:53.081Z,100.00
2022-10-03T01:54:52.091Z,100.00
2022-10-03T01:57:38.358Z,100.00
2022-10-03T02:00:13.009Z,100.00
2022-10-03T02:03:00.141Z,100.00
2022-10-03T02:05:54.599Z,100.00
2022-10-03T02:08:40.681Z,100.00
2022-10-03T02:11:11.315Z,100.00
2022-10-03T02:14:15.232Z,100.00
2022-10-03T02:16:58.183Z,100.00
2022-10-03T02:19:43.090Z,100.00
2022-10-03T02:22:30.109Z,100.00
2022-10-03T02:25:09.738Z,100.00
2022-10-03T02:28:02.457Z,100.00
2022-10-03T02:30:40.195Z,100.00
2022-10-03T02:37:42.446Z,100.00
2022-10-03T02:40:31.709Z,100.00
2022-10-03T02:43:43.977Z,100.00
2022-10-03T02:46:23.480Z,100.00
2022-10-03T02:49:07.919Z,100.00
2022-10-03T02:51:52.014Z,100.00
2022-10-03T02:54:57.820Z,100.00
2022-10-03T02:57:45.496Z,100.00
2022-10-03T03:00:17.154Z,100.00
2022-10-03T03:03:41.502Z,100.00
2022-10-03T03:06:37.109Z,100.00
2022-10-03T03:09:45.201Z,100.00
2022-10-03T03:12:46.544Z,100.00
2022-10-03T03:15:20.222Z,100.00
2022-10-03T03:18:57.309Z,100.00
2022-10-03T03:27:37.711Z,100.00
2022-10-03T03:30:15.126Z,100.00
2022-10-03T03:33:21.899Z,100.00
2022-10-03T03:36:26.918Z,100.00
2022-10-03T03:43:34.265Z,100.00
2022-10-03T03:46:13.957Z,100.00
2022-10-03T03:49:20.184Z,100.00
2022-10-03T03:52:09.165Z,100.00
2022-10-03T03:55:15.231Z,100.00
2022-10-03T03:58:20.651Z,100.00
2022-10-03T04:01:26.789Z,100.00
2022-10-03T04:04:15.679Z,100.00
2022-10-03T04:06:54.261Z,100.00
2022-10-03T04:09:40.083Z,100.00
2022-10-03T04:12:45.402Z,100.00
2022-10-03T04:15:22.130Z,100.00
2022-10-03T04:18:46.704Z,100.00
2022-10-03T04:21:35.132Z,100.00
2022-10-03T04:24:27.587Z,100.00
2022-10-03T04:27:27.877Z,100.00
2022-10-03T04:30:15.950Z,100.00
2022-10-03T04:33:06.858Z,100.00
2022-10-03T04:35:46.699Z,100.00
2022-10-03T04:38:25.364Z,100.00
2022-10-03T04:41:16.965Z,100.00
2022-10-03T04:43:52.463Z,100.00
2022-10-03T04:46:34.051Z,100.00
2022-10-03T04:49:14.738Z,100.00
2022-10-03T04:51:45.267Z,100.00
2022-10-03T04:54:19.988Z,100.00
2022-10-03T04:57:09.320Z,100.00
2022-10-03T04:59:58.621Z,100.00
2022-10-03T05:02:43.579Z,100.00
2022-10-03T05:05:16.987Z,100.00
2022-10-03T05:07:56.477Z,100.00
2022-10-03T05:10:39.187Z,100.00
2022-10-03T05:13:16.239Z,100.00
2022-10-03T05:16:40.433Z,100.00
2022-10-03T05:19:33.804Z,100.00
2022-10-03T05:22:07.889Z,100.00
2022-10-03T05:24:58.441Z,100.00
2022-10-03T05:27:51.825Z,100.00
2022-10-03T05:30:41.624Z,100.00
2022-10-03T05:33:33.676Z,100.00
2022-10-03T05:36:15.776Z,100.00
2022-10-03T05:39:20.756Z,100.00
2022-10-03T05:42:22.695Z,100.00
2022-10-03T05:44:59.112Z,100.00
2022-10-03T05:47:46.303Z,100.00
2022-10-03T05:50:42.609Z,100.00
2022-10-03T05:53:13.557Z,100.00
2022-10-03T05:55:59.557Z,100.00
2022-10-03T05:58:43.629Z,100.00
2022-10-03T06:01:40.338Z,100.00
2022-10-03T06:04:34.828Z,100.00
2022-10-03T06:07:10.171Z,100.00
2022-10-03T06:09:53.272Z,100.00
2022-10-03T06:12:54.230Z,100.00
2022-10-03T06:15:43.909Z,100.00
2022-10-03T06:18:26.241Z,100.00
2022-10-03T06:21:23.206Z,100.00
2022-10-03T06:24:08.947Z,100.00
2022-10-03T06:26:59.400Z,100.00
2022-10-03T06:30:11.826Z,100.00
2022-10-03T06:33:01.537Z,100.00
2022-10-03T06:35:48.003Z,100.00
2022-10-03T06:38:20.705Z,100.00
2022-10-03T06:41:24.108Z,100.00
2022-10-03T06:43:56.939Z,100.00
2022-10-03T06:46:45.576Z,100.00
2022-10-03T06:49:41.060Z,100.00
2022-10-03T06:52:17.590Z,100.00
2022-10-03T06:55:07.267Z,100.00
2022-10-03T06:57:56.164Z,100.00
2022-10-03T07:00:45.692Z,100.00
2022-10-03T07:03:31.314Z,100.00
2022-10-03T07:06:20.212Z,100.00
2022-10-03T07:09:12.127Z,100.00
2022-10-03T07:12:16.847Z,100.00
2022-10-03T07:14:44.405Z,100.00
2022-10-03T07:17:29.941Z,100.00
2022-10-03T07:20:06.734Z,100.00
2022-10-03T07:23:06.156Z,100.00
2022-10-03T07:25:52.757Z,100.00
2022-10-03T07:28:36.834Z,100.00
2022-10-03T07:31:17.038Z,100.00
2022-10-03T07:34:24.348Z,100.00
2022-10-03T07:53:16.633Z,100.00
2022-10-03T07:56:08.587Z,100.00
2022-10-03T07:58:55.194Z,100.00
2022-10-03T08:01:44.333Z,100.00
2022-10-03T08:04:30.564Z,100.00
2022-10-03T08:07:38.233Z,100.00
2022-10-03T08:10:19.346Z,100.00
2022-10-03T08:13:18.055Z,100.00
2022-10-03T08:16:12.966Z,100.00
2022-10-03T08:19:10.650Z,100.00
2022-10-03T08:21:53.815Z,100.00
2022-10-03T08:24:46.178Z,100.00
2022-10-03T08:27:38.541Z,100.00
2022-10-03T08:30:28.783Z,100.00
2022-10-03T08:33:18.768Z,100.00
2022-10-03T08:36:05.091Z,100.00
2022-10-03T08:39:19.282Z,100.00
2022-10-03T08:42:11.678Z,100.00
2022-10-03T08:45:06.433Z,100.00
2022-10-03T08:47:42.503Z,100.00
2022-10-03T08:50:09.856Z,100.00
2022-10-03T08:52:37.787Z,100.00
2022-10-03T08:55:11.313Z,100.00
2022-10-03T08:57:56.634Z,100.00
2022-10-03T09:00:40.700Z,100.00
2022-10-03T09:03:39.283Z,100.00
2022-10-03T09:07:05.207Z,100.00
2022-10-03T09:09:44.088Z,100.00
2022-10-03T09:12:42.584Z,100.00
2022-10-03T09:15:21.389Z,100.00
2022-10-03T09:17:58.693Z,100.00
2022-10-03T09:20:45.411Z,100.00
2022-10-03T09:23:39.190Z,100.00
2022-10-03T09:26:36.080Z,100.00
2022-10-03T09:29:27.023Z,100.00
2022-10-03T09:32:01.040Z,100.00
2022-10-03T09:35:14.895Z,100.00
2022-10-03T09:38:06.907Z,100.00
2022-10-03T09:41:02.891Z,100.00
2022-10-03T09:43:54.137Z,100.00
2022-10-03T09:46:46.278Z,100.00
2022-10-03T09:49:39.596Z,100.00
2022-10-03T09:52:28.355Z,100.00
2022-10-03T09:55:14.434Z,100.00
2022-10-03T09:58:21.158Z,100.00
2022-10-03T10:01:14.260Z,100.00
2022-10-03T10:04:11.409Z,100.00
2022-10-03T10:06:54.333Z,100.00
2022-10-03T10:10:00.545Z,100.00
2022-10-03T10:12:55.696Z,100.00
2022-10-03T10:15:46.668Z,92.12
2022-10-03T10:18:40.824Z,91.14
2022-10-03T10:21:23.726Z,89.79
2022-10-03T10:24:10.070Z,89.99
2022-10-03T10:27:10.842Z,91.68
2022-10-03T10:29:57.180Z,86.03
2022-10-03T10:33:02.494Z,91.52
2022-10-03T10:35:59.759Z,88.79
2022-10-03T10:38:38.877Z,80.52
2022-10-03T10:41:44.037Z,86.92
2022-10-03T10:44:20.686Z,88.99
2022-10-03T10:47:06.813Z,89.87
2022-10-03T10:49:35.777Z,86.35
2022-10-03T10:52:25.064Z,79.79
2022-10-03T10:55:05.173Z,84.33
2022-10-03T10:58:10.299Z,83.80
2022-10-03T11:00:47.421Z,73.66
2022-10-03T11:03:33.318Z,71.22
2022-10-03T11:06:41.944Z,69.35
2022-10-03T11:09:18.900Z,65.61
2022-10-03T11:15:35.728Z,63.16
2022-10-03T11:18:19.178Z,66.73
2022-10-03T11:20:52.836Z,64.16
2022-10-03T11:23:24.444Z,65.07
2022-10-03T11:26:30.930Z,68.93
2022-10-03T11:29:38.454Z,69.21
2022-10-03T11:32:41.205Z,70.76
2022-10-03T11:35:44.526Z,73.04
2022-10-03T11:38:20.839Z,68.07
2022-10-03T11:41:10.330Z,67.38
2022-10-03T11:43:48.563Z,69.74
2022-10-03T11:46:50.352Z,68.78
2022-10-03T11:49:18.533Z,65.21
2022-10-03T11:51:58.743Z,65.81
2022-10-03T11:54:37.253Z,67.55
2022-10-03T11:57:18.825Z,69.43
2022-10-03T12:00:00.268Z,71.41
2022-10-03T12:02:46.146Z,74.55
2022-10-03T12:05:38.161Z,73.81
2022-10-03T12:08:43.209Z,74.98
2022-10-03T12:11:14.195Z,73.53
2022-10-03T12:13:49.494Z,70.98
2022-10-03T12:16:26.003Z,71.68
2022-10-03T12:19:08.204Z,64.28
2022-10-03T12:21:54.953Z,65.40
2022-10-03T12:24:27.889Z,58.86
2022-10-03T12:27:33.929Z,55.29
2022-10-03T12:30:04.186Z,55.63
2022-10-03T12:32:54.641Z,57.52
2022-10-03T12:35:40.958Z,59.24
2022-10-03T12:38:46.451Z,58.30
2022-10-03T12:41:22.160Z,57.42
2022-10-03T12:44:05.204Z,55.85
2022-10-03T12:46:50.353Z,56.82
2022-10-03T12:49:37.251Z,54.72
2022-10-03T12:52:16.043Z,52.85
2022-10-03T12:54:52.274Z,46.22
2022-10-03T12:57:40.669Z,42.33
2022-10-03T13:00:43.925Z,41.20
2022-10-03T13:03:26.814Z,35.98
2022-10-03T13:06:44.443Z,36.26
2022-10-03T13:09:40.742Z,34.45
2022-10-03T13:12:28.124Z,31.84
2022-10-03T13:15:42.813Z,31.85
2022-10-03T13:18:35.436Z,31.46
2022-10-03T13:21:41.087Z,29.99
2022-10-03T13:24:33.575Z,29.69
2022-10-03T13:28:03.592Z,28.95
2022-10-03T13:30:53.971Z,27.40
2022-10-03T13:33:26.430Z,27.40
2022-10-03T13:36:14.866Z,26.99
2022-10-03T13:38:51.199Z,30.33
2022-10-03T13:41:27.150Z,33.33
2022-10-03T13:44:17.900Z,36.17
2022-10-03T13:47:03.029Z,37.47
2022-10-03T13:49:35.676Z,37.86
2022-10-03T13:52:33.614Z,37.78
2022-10-03T13:55:35.853Z,35.76
2022-10-03T13:58:23.143Z,35.75
2022-10-03T14:01:13.585Z,36.19
2022-10-03T14:03:48.841Z,34.07
2022-10-03T14:07:05.908Z,35.28
2022-10-03T14:09:51.288Z,36.58
2022-10-03T14:12:55.767Z,35.37
2022-10-03T14:15:41.027Z,38.01
2022-10-03T14:18:27.465Z,36.73
2022-10-03T14:21:19.467Z,34.97
2022-10-03T14:24:22.426Z,32.34
2022-10-03T14:27:12.293Z,29.85
2022-10-03T14:29:53.635Z,30.12
2022-10-03T14:32:48.738Z,29.01
2022-10-03T14:35:38.590Z,28.56
2022-10-03T14:39:00.465Z,28.11
2022-10-03T14:41:56.531Z,28.04
2022-10-03T14:44:42.821Z,27.64
2022-10-03T14:47:13.497Z,28.52
2022-10-03T14:49:58.816Z,26.93
2022-10-03T14:52:45.629Z,25.85
2022-10-03T14:55:29.966Z,25.10
2022-10-03T14:58:15.745Z,24.34
2022-10-03T15:00:53.582Z,23.67
2022-10-03T15:03:33.361Z,25.77
2022-10-03T15:06:02.131Z,26.22
2022-10-03T15:08:39.243Z,24.93
2022-10-03T15:11:08.007Z,25.27
2022-10-03T15:13:42.634Z,23.10
2022-10-03T15:16:18.936Z,22.81
2022-10-03T15:18:58.709Z,23.70
2022-10-03T15:21:27.888Z,23.47
2022-10-03T15:24:02.652Z,25.20
2022-10-03T15:26:35.667Z,28.40
2022-10-03T15:29:31.353Z,28.21
2022-10-03T15:31:59.203Z,27.30
2022-10-03T15:34:39.815Z,27.87
2022-10-03T15:37:18.366Z,25.52
2022-10-03T15:39:48.131Z,26.23
2022-10-03T15:42:23.411Z,26.67
2022-10-03T15:44:55.129Z,26.86
2022-10-03T15:47:27.412Z,27.62
2022-10-03T15:50:27.276Z,27.98
2022-10-03T15:53:04.639Z,28.53
2022-10-03T15:55:53.297Z,28.23
2022-10-03T15:58:34.053Z,28.28
2022-10-03T16:01:15.281Z,27.57
2022-10-03T16:03:51.749Z,29.02
2022-10-03T16:06:47.817Z,29.68
2022-10-03T16:10:04.140Z,29.67
2022-10-03T16:13:13.945Z,30.43
2022-10-03T16:16:23.725Z,32.91
2022-10-03T16:19:00.726Z,33.59
2022-10-03T16:21:44.382Z,34.69
2022-10-03T16:24:46.919Z,37.26
2022-10-03T16:27:23.150Z,38.07
2022-10-03T16:30:20.270Z,37.30
2022-10-03T16:33:21.341Z,38.27
2022-10-03T16:35:57.626Z,41.67
2022-10-03T16:38:30.145Z,43.46
2022-10-03T16:41:02.297Z,46.58
2022-10-03T16:43:32.955Z,49.35
2022-10-03T16:46:19.187Z,51.48
2022-10-03T16:49:04.877Z,50.89
2022-10-03T16:51:44.197Z,52.77
2022-10-03T16:54:14.920Z,54.66
2022-10-03T16:56:52.471Z,57.64
2022-10-03T16:59:22.082Z,58.48
2022-10-03T17:02:06.797Z,61.84
2022-10-03T17:04:44.226Z,67.49
2022-10-03T17:07:30.002Z,67.82
2022-10-03T17:10:00.756Z,70.37
2022-10-03T17:12:46.067Z,74.75
2022-10-03T17:15:20.758Z,77.89
2022-10-03T17:17:55.397Z,82.22
2022-10-03T17:21:13.206Z,83.72
2022-10-03T17:23:51.509Z,87.86
2022-10-03T17:26:41.092Z,90.71
2022-10-03T17:29:26.580Z,93.24
2022-10-03T17:32:21.466Z,98.45
2022-10-03T17:35:31.015Z,100.00
2022-10-03T17:38:44.673Z,100.00
2022-10-03T17:41:24.084Z,100.00
2022-10-03T17:44:01.595Z,100.00
2022-10-03T17:46:58.676Z,100.00
2022-10-03T17:50:16.912Z,100.00
2022-10-03T17:52:46.994Z,100.00
2022-10-03T17:55:22.803Z,100.00
2022-10-03T17:57:55.146Z,100.00
2022-10-03T18:00:35.945Z,100.00
2022-10-03T18:03:27.789Z,100.00
2022-10-03T18:06:41.587Z,100.00
2022-10-03T18:09:17.033Z,100.00
2022-10-03T18:11:47.445Z,100.00
2022-10-03T18:14:48.014Z,100.00
2022-10-03T18:17:55.042Z,100.00
2022-10-03T18:20:32.301Z,100.00
2022-10-03T18:23:06.541Z,100.00
2022-10-03T18:26:20.933Z,100.00
2022-10-03T18:29:25.328Z,100.00
2022-10-03T18:32:06.172Z,100.00
2022-10-03T18:34:41.377Z,100.00
2022-10-03T18:37:40.805Z,100.00
2022-10-03T18:40:27.921Z,100.00
2022-10-03T18:42:55.802Z,100.00
2022-10-03T18:45:44.729Z,100.00
2022-10-03T18:48:31.315Z,100.00
2022-10-03T18:51:11.852Z,100.00
2022-10-03T18:54:17.978Z,100.00
2022-10-03T18:57:21.178Z,100.00
2022-10-03T19:00:18.346Z,100.00
2022-10-03T19:03:42.517Z,100.00
2022-10-03T19:06:26.054Z,100.00
2022-10-03T19:09:00.561Z,100.00
2022-10-03T19:12:14.686Z,100.00
2022-10-03T19:15:38.912Z,100.00
2022-10-03T19:18:13.150Z,100.00
2022-10-03T19:20:44.828Z,100.00
2022-10-03T19:23:23.081Z,100.00
2022-10-03T19:26:08.783Z,100.00
2022-10-03T19:28:46.757Z,100.00
2022-10-03T19:32:11.942Z,100.00
2022-10-03T19:35:37.384Z,100.00
2022-10-03T19:38:17.151Z,100.00
2022-10-03T19:41:41.590Z,100.00
2022-10-03T19:45:08.939Z,100.00
2022-10-03T19:48:32.391Z,100.00
2022-10-03T19:51:25.133Z,100.00
2022-10-03T19:53:57.208Z,100.00
2022-10-03T19:57:21.286Z,100.00
2022-10-03T19:59:56.239Z,100.00
2022-10-03T20:02:26.110Z,100.00
2022-10-03T20:04:57.219Z,100.00
2022-10-03T20:07:40.515Z,100.00
2022-10-03T20:10:26.721Z,100.00
2022-10-03T20:12:54.182Z,100.00
2022-10-03T20:15:26.549Z,100.00
2022-10-03T20:18:00.461Z,100.00
2022-10-03T20:20:31.302Z,100.00
2022-10-03T20:23:06.332Z,100.00
2022-10-03T20:25:40.294Z,100.00
2022-10-03T20:28:20.807Z,100.00
2022-10-03T20:30:51.416Z,100.00
2022-10-03T20:33:35.058Z,100.00
2022-10-03T20:36:19.571Z,100.00
2022-10-03T20:39:13.376Z,100.00
2022-10-03T20:41:59.592Z,100.00
2022-10-03T20:44:50.463Z,100.00
2022-10-03T20:47:39.255Z,100.00
2022-10-03T20:50:36.678Z,100.00
2022-10-03T20:53:22.331Z,100.00
2022-10-03T20:55:57.057Z,100.00
2022-10-03T20:58:40.090Z,100.00
2022-10-03T21:01:24.586Z,100.00
2022-10-03T21:04:10.558Z,100.00
2022-10-03T21:07:05.378Z,100.00
2022-10-03T21:09:49.104Z,100.00
2022-10-03T21:12:28.207Z,100.00
2022-10-03T21:15:03.852Z,100.00
2022-10-03T21:17:31.524Z,100.00
2022-10-03T21:20:07.207Z,100.00
2022-10-03T21:22:36.245Z,100.00
2022-10-03T21:25:16.695Z,100.00
2022-10-03T21:27:55.051Z,100.00
2022-10-03T21:30:53.085Z,100.00
2022-10-03T21:34:34.141Z,100.00
2022-10-03T21:37:57.429Z,100.00
2022-10-03T21:40:50.124Z,100.00
2022-10-03T21:44:13.429Z,100.00
2022-10-03T21:47:28.585Z,100.00
2022-10-03T21:49:59.433Z,100.00
2022-10-03T21:53:23.117Z,100.00
2022-10-03T21:56:23.269Z,100.00
2022-10-03T21:59:46.902Z,100.00
2022-10-03T22:03:11.016Z,100.00
2022-10-03T22:06:35.056Z,100.00
2022-10-03T22:09:10.888Z,100.00
2022-10-03T22:12:34.410Z,100.00
2022-10-03T22:15:57.875Z,100.00
2022-10-03T22:19:25.945Z,100.00
2022-10-03T22:22:49.352Z,100.00
2022-10-03T22:26:13.229Z,100.00
2022-10-03T22:29:04.757Z,100.00
2022-10-03T22:32:28.419Z,100.00
2022-10-03T22:35:17.150Z,100.00
2022-10-03T22:37:44.526Z,100.00
2022-10-03T22:40:13.068Z,100.00
2022-10-03T22:42:48.934Z,100.00
2022-10-03T22:45:17.535Z,100.00
2022-10-03T22:47:52.743Z,100.00
2022-10-03T22:50:25.270Z,100.00
2022-10-03T22:52:52.753Z,100.00
2022-10-03T22:55:24.270Z,100.00
2022-10-03T22:57:52.377Z,100.00
2022-10-03T23:00:30.345Z,100.00
2022-10-03T23:03:07.547Z,100.00
2022-10-03T23:06:19.490Z,100.00
2022-10-03T23:09:24.563Z,100.00
2022-10-03T23:11:54.659Z,100.00
2022-10-03T23:14:29.138Z,100.00
2022-10-03T23:17:21.737Z,100.00
2022-10-03T23:20:10.313Z,100.00
2022-10-03T23:22:47.142Z,100.00
2022-10-03T23:25:26.169Z,100.00
2022-10-03T23:28:08.792Z,100.00
2022-10-03T23:30:47.027Z,100.00
2022-10-03T23:33:32.188Z,100.00
2022-10-03T23:36:17.774Z,100.00
2022-10-03T23:38:52.900Z,100.00
2022-10-03T23:41:44.395Z,100.00
2022-10-03T23:44:30.312Z,100.00
2022-10-03T23:46:59.473Z,100.00
2022-10-03T23:49:26.990Z,100.00
2022-10-03T23:51:55.194Z,100.00
2022-10-03T23:54:22.617Z,100.00
2022-10-03T23:56:50.440Z,100.00
2022-10-03T23:59:24.038Z,100.00
